createdAt,value
2023-02-22T00:00:50.117Z,24.88
2023-02-22T00:03:24.948Z,26.05
2023-02-22T00:05:58.282Z,22.42
2023-02-22T00:08:30.356Z,23.65
2023-02-22T00:10:58.521Z,24.52
2023-02-22T00:13:29.568Z,23.65
2023-02-22T00:15:58.096Z,25.65
2023-02-22T00:18:27.969Z,24.60
2023-02-22T00:20:59.837Z,26.38
2023-02-22T00:23:30.122Z,25.63
2023-02-22T00:25:59.513Z,24.73
2023-02-22T00:28:30.642Z,24.15
2023-02-22T00:30:59.871Z,24.15
2023-02-22T00:33:27.951Z,24.80
2023-02-22T00:35:55.798Z,24.08
2023-02-22T00:38:23.961Z,22.70
2023-02-22T00:40:52.437Z,23.77
2023-02-22T00:43:20.344Z,23.67
2023-02-22T00:45:50.420Z,22.52
2023-02-22T00:48:19.519Z,23.00
2023-02-22T00:50:49.236Z,23.88
2023-02-22T00:53:17.747Z,22.98
2023-02-22T00:55:45.647Z,22.30
2023-02-22T00:58:13.667Z,22.33
2023-02-22T01:00:43.741Z,24.02
2023-02-22T01:03:15.018Z,22.17
2023-02-22T01:05:43.933Z,22.38
2023-02-22T01:08:13.604Z,24.92
2023-02-22T01:10:41.688Z,24.48
2023-02-22T01:13:12.225Z,22.10
2023-02-22T01:15:41.850Z,22.50
2023-02-22T01:18:12.594Z,21.30
2023-02-22T01:20:40.701Z,22.05
2023-02-22T01:23:10.621Z,20.42
2023-02-22T01:25:38.803Z,20.05
2023-02-22T01:28:09.873Z,19.38
2023-02-22T01:30:38.321Z,21.17
2023-02-22T01:33:08.564Z,19.02
2023-02-22T01:35:40.802Z,20.25
2023-02-22T01:38:09.552Z,18.08
2023-02-22T01:40:39.683Z,17.63
2023-02-22T01:43:20.126Z,18.55
2023-02-22T01:45:58.268Z,18.88
2023-02-22T01:48:35.680Z,16.80
2023-02-22T01:51:10.774Z,18.02
2023-02-22T01:53:46.065Z,17.73
2023-02-22T01:56:16.166Z,17.83
2023-02-22T01:58:50.612Z,16.92
2023-02-22T02:01:21.392Z,18.48
2023-02-22T02:03:50.494Z,18.50
2023-02-22T02:06:20.559Z,15.93
2023-02-22T02:08:56.054Z,18.08
2023-02-22T02:11:25.977Z,19.10
2023-02-22T02:13:57.162Z,17.27
2023-02-22T02:16:27.506Z,17.10
2023-02-22T02:18:55.974Z,17.92
2023-02-22T02:21:49.841Z,17.02
2023-02-22T02:25:05.065Z,16.40
2023-02-22T02:27:48.618Z,17.95
2023-02-22T02:30:46.982Z,17.25
2023-02-22T02:33:22.114Z,17.88
2023-02-22T02:35:58.663Z,18.35
2023-02-22T02:38:35.273Z,16.90
2023-02-22T02:41:10.745Z,17.63
2023-02-22T02:43:43.867Z,16.20
2023-02-22T02:46:16.724Z,17.27
2023-02-22T02:48:54.701Z,17.25
2023-02-22T02:51:28.718Z,18.08
2023-02-22T02:53:57.777Z,16.88
2023-02-22T02:56:25.905Z,17.40
2023-02-22T02:58:55.625Z,17.20
2023-02-22T03:01:40.854Z,16.63
2023-02-22T03:04:24.468Z,17.60
2023-02-22T03:07:08.731Z,16.92
2023-02-22T03:09:49.057Z,16.33
2023-02-22T03:12:29.263Z,16.38
2023-02-22T03:15:09.858Z,15.15
2023-02-22T03:17:46.767Z,16.95
2023-02-22T03:20:23.511Z,17.80
2023-02-22T03:22:59.396Z,17.98
2023-02-22T03:28:04.631Z,15.23
2023-02-22T03:30:39.291Z,16.63
2023-02-22T03:33:15.612Z,16.33
2023-02-22T03:35:49.511Z,16.05
2023-02-22T03:38:21.391Z,15.45
2023-02-22T03:40:52.377Z,15.65
2023-02-22T03:43:26.166Z,15.68
2023-02-22T03:45:59.470Z,16.92
2023-02-22T03:48:37.363Z,15.85
2023-02-22T03:51:08.459Z,15.70
2023-02-22T03:53:37.415Z,16.15
2023-02-22T03:56:10.498Z,15.77
2023-02-22T03:58:40.633Z,16.50
2023-02-22T04:01:08.707Z,15.82
2023-02-22T04:03:36.522Z,15.00
2023-02-22T04:06:05.278Z,16.30
2023-02-22T04:08:35.233Z,15.25
2023-02-22T04:11:03.685Z,15.70
2023-02-22T04:13:32.431Z,15.98
2023-02-22T04:16:00.817Z,16.08
2023-02-22T04:18:28.719Z,15.65
2023-02-22T04:20:57.124Z,14.45
2023-02-22T04:23:37.084Z,15.35
2023-02-22T04:26:05.924Z,15.13
2023-02-22T04:28:34.002Z,15.45
2023-02-22T04:31:14.763Z,14.95
2023-02-22T04:33:42.912Z,15.70
2023-02-22T04:36:16.004Z,15.40
2023-02-22T04:38:46.281Z,14.23
2023-02-22T04:41:14.782Z,14.63
2023-02-22T04:43:42.891Z,14.43
2023-02-22T04:46:29.523Z,14.52
2023-02-22T04:48:58.706Z,14.13
2023-02-22T04:51:29.747Z,13.75
2023-02-22T04:54:02.871Z,13.07
2023-02-22T04:56:33.120Z,13.50
2023-02-22T04:59:01.075Z,13.15
2023-02-22T05:01:33.572Z,13.80
2023-02-22T05:04:04.027Z,13.40
2023-02-22T05:06:32.132Z,14.52
2023-02-22T05:09:00.028Z,15.32
2023-02-22T05:11:29.278Z,14.27
2023-02-22T05:13:57.336Z,15.32
2023-02-22T05:16:25.333Z,15.43
2023-02-22T05:18:53.424Z,14.07
2023-02-22T05:21:21.415Z,15.68
2023-02-22T05:23:49.423Z,15.45
2023-02-22T05:26:17.452Z,14.73
2023-02-22T05:28:46.727Z,15.15
2023-02-22T05:31:14.835Z,14.25
2023-02-22T05:33:43.080Z,14.43
2023-02-22T05:36:11.489Z,14.88
2023-02-22T05:38:43.243Z,15.57
2023-02-22T05:41:12.370Z,15.70
2023-02-22T05:43:40.520Z,14.77
2023-02-22T05:46:09.912Z,14.82
2023-02-22T05:48:39.343Z,14.93
2023-02-22T05:51:09.648Z,15.23
2023-02-22T05:53:37.872Z,14.95
2023-02-22T05:56:06.467Z,14.80
2023-02-22T05:58:34.386Z,15.07
2023-02-22T06:01:03.432Z,14.10
2023-02-22T06:03:32.905Z,15.90
2023-02-22T06:06:00.816Z,14.88
2023-02-22T06:08:28.667Z,14.98
2023-02-22T06:10:56.562Z,15.48
2023-02-22T06:13:24.408Z,14.10
2023-02-22T06:15:52.261Z,15.35
2023-02-22T06:18:20.392Z,15.23
2023-02-22T06:20:50.845Z,13.25
2023-02-22T06:23:18.935Z,14.30
2023-02-22T06:25:46.834Z,14.02
2023-02-22T06:28:15.657Z,14.10
2023-02-22T06:30:43.773Z,15.05
2023-02-22T06:33:12.328Z,13.82
2023-02-22T06:35:40.289Z,13.93
2023-02-22T06:38:10.147Z,14.13
2023-02-22T06:40:38.031Z,14.23
2023-02-22T06:43:06.006Z,15.32
2023-02-22T06:45:33.973Z,15.55
2023-02-22T06:48:01.825Z,15.25
2023-02-22T06:50:31.634Z,15.02
2023-02-22T06:53:00.068Z,15.88
2023-02-22T06:55:31.645Z,15.52
2023-02-22T06:58:00.045Z,15.68
2023-02-22T07:00:30.002Z,15.88
2023-02-22T07:02:59.251Z,15.77
2023-02-22T07:05:28.771Z,15.88
2023-02-22T07:08:03.475Z,17.23
2023-02-22T07:10:33.935Z,17.80
2023-02-22T07:13:02.268Z,16.65
2023-02-22T07:15:32.590Z,16.33
2023-02-22T07:18:00.855Z,17.67
2023-02-22T07:20:31.013Z,16.73
2023-02-22T07:22:58.868Z,18.00
2023-02-22T07:25:27.241Z,17.13
2023-02-22T07:27:56.556Z,16.95
2023-02-22T07:30:27.988Z,17.17
2023-02-22T07:32:56.500Z,15.52
2023-02-22T07:35:26.625Z,16.80
2023-02-22T07:37:55.955Z,15.73
2023-02-22T07:40:25.361Z,16.48
2023-02-22T07:42:57.138Z,17.00
2023-02-22T07:45:26.620Z,15.98
2023-02-22T07:47:55.139Z,16.25
2023-02-22T07:50:27.488Z,16.50
2023-02-22T07:52:58.298Z,16.42
2023-02-22T07:55:28.292Z,16.00
2023-02-22T07:57:59.677Z,15.82
2023-02-22T08:00:29.618Z,17.15
2023-02-22T08:02:57.995Z,16.10
2023-02-22T08:05:27.979Z,15.32
2023-02-22T08:07:55.813Z,15.45
2023-02-22T08:10:25.596Z,15.45
2023-02-22T08:12:54.341Z,14.70
2023-02-22T08:15:28.462Z,14.25
2023-02-22T08:17:57.387Z,14.48
2023-02-22T08:20:25.740Z,14.13
2023-02-22T08:22:54.010Z,15.02
2023-02-22T08:25:25.283Z,14.55
2023-02-22T08:27:58.629Z,13.35
2023-02-22T08:30:29.111Z,14.30
2023-02-22T08:32:58.097Z,14.85
2023-02-22T08:35:27.493Z,14.52
2023-02-22T08:37:58.556Z,14.73
2023-02-22T08:40:29.222Z,14.00
2023-02-22T08:42:57.086Z,14.00
2023-02-22T08:45:25.257Z,13.43
2023-02-22T08:47:54.503Z,13.13
2023-02-22T08:50:24.593Z,14.13
2023-02-22T08:52:53.213Z,12.57
2023-02-22T08:55:22.505Z,12.43
2023-02-22T08:57:51.805Z,14.13
2023-02-22T09:02:48.921Z,12.43
2023-02-22T09:05:18.341Z,13.32
2023-02-22T09:07:46.549Z,13.68
2023-02-22T09:10:17.825Z,13.10
2023-02-22T09:12:45.764Z,12.38
2023-02-22T09:15:13.913Z,13.52
2023-02-22T09:17:41.863Z,13.85
2023-02-22T09:20:12.291Z,13.02
2023-02-22T09:22:41.815Z,13.27
2023-02-22T09:25:16.757Z,12.52
2023-02-22T09:30:19.180Z,12.20
2023-02-22T09:32:47.348Z,12.52
2023-02-22T09:35:15.393Z,11.85
2023-02-22T09:37:45.226Z,11.50
2023-02-22T09:40:24.823Z,11.77
2023-02-22T09:43:04.878Z,12.07
2023-02-22T09:45:38.794Z,11.77
2023-02-22T09:48:21.262Z,11.55
2023-02-22T09:50:52.525Z,11.55
2023-02-22T09:53:30.308Z,11.98
2023-02-22T09:56:03.515Z,11.50
2023-02-22T09:58:34.384Z,11.90
2023-02-22T10:01:19.837Z,11.45
2023-02-22T10:03:54.502Z,11.00
2023-02-22T10:06:25.585Z,11.23
2023-02-22T10:09:00.916Z,10.82
2023-02-22T10:11:42.602Z,11.15
2023-02-22T10:14:30.746Z,11.32
2023-02-22T10:17:06.210Z,10.50
2023-02-22T10:22:37.286Z,11.40
2023-02-22T10:25:13.758Z,10.57
2023-02-22T10:27:47.839Z,10.75
2023-02-22T10:30:24.907Z,11.80
2023-02-22T10:32:59.737Z,11.25
2023-02-22T10:35:30.876Z,10.35
2023-02-22T10:38:05.340Z,11.30
2023-02-22T10:40:34.740Z,10.90
2023-02-22T10:43:04.960Z,10.43
2023-02-22T10:45:35.854Z,10.68
2023-02-22T10:48:11.484Z,10.50
2023-02-22T10:50:41.496Z,9.63
2023-02-22T10:53:10.529Z,8.98
2023-02-22T10:56:10.142Z,9.00
2023-02-22T10:58:47.950Z,8.45
2023-02-22T11:01:26.177Z,8.88
2023-02-22T11:03:59.153Z,8.25
2023-02-22T11:06:27.470Z,7.47
2023-02-22T11:09:06.485Z,6.90
2023-02-22T11:11:35.813Z,6.82
2023-02-22T11:14:06.602Z,7.35
2023-02-22T11:16:38.249Z,6.43
2023-02-22T11:19:14.075Z,6.40
2023-02-22T11:21:42.384Z,6.40
2023-02-22T11:24:12.637Z,6.43
2023-02-22T11:26:45.060Z,6.35
2023-02-22T11:29:21.307Z,6.07
2023-02-22T11:31:50.351Z,5.72
2023-02-22T11:34:31.518Z,6.30
2023-02-22T11:37:17.712Z,5.85
2023-02-22T11:39:46.654Z,6.00
2023-02-22T11:42:27.608Z,5.75
2023-02-22T11:45:10.923Z,5.45
2023-02-22T11:47:49.413Z,5.90
2023-02-22T11:50:28.879Z,6.00
2023-02-22T11:53:10.135Z,6.10
2023-02-22T11:55:46.847Z,5.80
2023-02-22T11:58:34.318Z,6.32
2023-02-22T12:01:10.087Z,5.40
2023-02-22T12:04:16.102Z,6.22
2023-02-22T12:06:52.008Z,6.40
2023-02-22T12:09:27.301Z,6.00
2023-02-22T12:12:07.516Z,6.15
2023-02-22T12:14:45.065Z,6.03
2023-02-22T12:17:24.490Z,6.07
2023-02-22T12:19:58.761Z,6.65
2023-02-22T12:22:30.591Z,6.82
2023-02-22T12:25:09.484Z,5.90
2023-02-22T12:27:42.870Z,6.13
2023-02-22T12:30:19.191Z,6.00
2023-02-22T12:32:51.853Z,6.18
2023-02-22T12:35:24.690Z,6.00
2023-02-22T12:38:01.826Z,6.45
2023-02-22T12:40:36.536Z,6.00
2023-02-22T12:43:11.935Z,6.43
2023-02-22T12:48:27.381Z,5.82
2023-02-22T12:50:59.260Z,6.00
2023-02-22T12:53:32.353Z,5.93
2023-02-22T12:56:16.668Z,5.97
2023-02-22T12:58:50.819Z,5.85
2023-02-22T13:01:23.757Z,6.45
2023-02-22T13:03:51.829Z,6.57
2023-02-22T13:06:31.207Z,6.25
2023-02-22T13:09:11.298Z,6.32
2023-02-22T13:11:44.724Z,6.15
2023-02-22T13:14:30.081Z,6.28
2023-02-22T13:17:06.990Z,6.53
2023-02-22T13:19:44.141Z,6.50
2023-02-22T13:22:20.082Z,7.13
2023-02-22T13:24:59.619Z,6.68
2023-02-22T13:27:33.020Z,6.47
2023-02-22T13:30:02.515Z,6.80
2023-02-22T13:32:47.970Z,6.90
2023-02-22T13:35:27.464Z,6.95
2023-02-22T13:38:16.618Z,6.60
2023-02-22T13:41:12.858Z,7.10
2023-02-22T13:44:07.947Z,7.18
2023-02-22T13:46:50.819Z,8.00
2023-02-22T13:49:48.164Z,6.78
2023-02-22T13:52:21.215Z,6.53
2023-02-22T13:54:54.551Z,6.45
2023-02-22T13:57:25.761Z,7.28
2023-02-22T14:00:24.415Z,6.57
2023-02-22T14:03:06.808Z,6.70
2023-02-22T14:05:50.947Z,6.35
2023-02-22T14:08:43.791Z,6.03
2023-02-22T14:11:57.248Z,6.25
2023-02-22T14:14:25.772Z,6.55
2023-02-22T14:17:23.903Z,6.15
2023-02-22T14:20:20.860Z,5.95
2023-02-22T14:22:53.163Z,6.00
2023-02-22T14:25:37.479Z,6.00
2023-02-22T14:28:07.599Z,6.45
2023-02-22T14:30:38.864Z,6.50
2023-02-22T14:33:42.070Z,6.63
2023-02-22T14:36:11.284Z,6.65
2023-02-22T14:38:41.961Z,6.13
2023-02-22T14:41:10.275Z,6.20
2023-02-22T14:43:39.977Z,6.35
2023-02-22T14:46:13.600Z,6.80
2023-02-22T14:48:42.980Z,6.93
2023-02-22T14:51:21.937Z,6.57
2023-02-22T14:53:55.045Z,6.28
2023-02-22T14:56:26.303Z,7.07
2023-02-22T14:59:00.228Z,6.75
2023-02-22T15:01:47.342Z,7.07
2023-02-22T15:04:23.030Z,6.68
2023-02-22T15:06:51.571Z,6.45
2023-02-22T15:09:27.658Z,6.72
2023-02-22T15:12:14.709Z,7.22
2023-02-22T15:14:47.571Z,6.63
2023-02-22T15:17:20.845Z,7.10
2023-02-22T15:19:50.079Z,6.80
2023-02-22T15:22:23.577Z,6.82
2023-02-22T15:25:00.283Z,6.78
2023-02-22T15:27:29.263Z,6.70
2023-02-22T15:30:04.391Z,6.68
2023-02-22T15:32:36.275Z,6.55
2023-02-22T15:35:16.516Z,7.07
2023-02-22T15:37:45.492Z,7.55
2023-02-22T15:40:20.878Z,7.25
2023-02-22T15:42:50.397Z,7.78
2023-02-22T15:45:21.028Z,8.95
2023-02-22T15:47:50.852Z,7.43
2023-02-22T15:50:23.661Z,7.90
2023-02-22T15:52:57.994Z,7.53
2023-02-22T15:55:30.834Z,7.40
2023-02-22T15:58:02.230Z,8.57
2023-02-22T16:00:36.935Z,8.75
2023-02-22T16:03:06.167Z,7.85
2023-02-22T16:05:40.200Z,8.38
2023-02-22T16:08:16.690Z,8.23
2023-02-22T16:10:54.279Z,8.05
2023-02-22T16:13:32.960Z,7.70
2023-02-22T16:16:03.125Z,8.10
2023-02-22T16:18:34.399Z,8.15
2023-02-22T16:21:08.060Z,8.05
2023-02-22T16:23:45.854Z,8.55
2023-02-22T16:26:28.636Z,8.48
2023-02-22T16:28:58.890Z,8.23
2023-02-22T16:31:28.538Z,9.10
2023-02-22T16:33:56.550Z,8.13
2023-02-22T16:36:38.686Z,8.68
2023-02-22T16:39:08.395Z,8.45
2023-02-22T16:41:37.723Z,9.10
2023-02-22T16:44:07.654Z,8.20
2023-02-22T16:46:36.660Z,8.13
2023-02-22T16:49:05.017Z,10.88
2023-02-22T16:51:39.799Z,10.10
2023-02-22T16:54:12.408Z,9.07
2023-02-22T16:56:42.480Z,8.98
2023-02-22T16:59:15.006Z,8.75
2023-02-22T17:01:43.442Z,8.85
2023-02-22T17:04:15.859Z,8.40
2023-02-22T17:06:44.116Z,9.40
2023-02-22T17:09:11.971Z,10.23
2023-02-22T17:11:41.365Z,9.40
2023-02-22T17:14:09.701Z,9.98
2023-02-22T17:16:37.970Z,9.48
2023-02-22T17:19:11.258Z,9.05
2023-02-22T17:21:40.164Z,7.90
2023-02-22T17:24:08.140Z,10.02
2023-02-22T17:26:37.111Z,7.97
2023-02-22T17:29:06.429Z,8.45
2023-02-22T17:31:34.978Z,7.47
2023-02-22T17:34:04.985Z,8.88
2023-02-22T17:36:34.210Z,8.90
2023-02-22T17:39:02.970Z,9.75
2023-02-22T17:41:30.886Z,12.27
2023-02-22T17:43:59.049Z,12.32
2023-02-22T17:46:28.293Z,11.80
2023-02-22T17:48:56.177Z,13.20
2023-02-22T17:51:26.253Z,13.57
2023-02-22T17:53:54.344Z,15.25
2023-02-22T17:56:22.667Z,15.20
2023-02-22T17:58:54.099Z,14.40
2023-02-22T18:01:27.108Z,27.83
2023-02-22T18:03:58.573Z,19.02
2023-02-22T18:06:28.569Z,16.65
2023-02-22T18:08:57.860Z,17.05
2023-02-22T18:11:27.494Z,16.10
2023-02-22T18:13:55.869Z,16.75
2023-02-22T18:16:25.461Z,16.23
2023-02-22T18:18:54.680Z,14.85
2023-02-22T18:21:26.690Z,15.48
2023-02-22T18:23:55.168Z,15.90
2023-02-22T18:26:25.320Z,14.65
2023-02-22T18:28:54.070Z,14.15
2023-02-22T18:31:23.465Z,14.27
2023-02-22T18:33:53.327Z,14.27
2023-02-22T18:36:23.778Z,14.98
2023-02-22T18:38:54.138Z,14.63
2023-02-22T18:41:25.631Z,14.25
2023-02-22T18:43:55.184Z,13.70
2023-02-22T18:46:25.205Z,13.95
2023-02-22T18:48:55.488Z,12.73
2023-02-22T18:51:25.716Z,13.07
2023-02-22T18:53:59.734Z,15.35
2023-02-22T18:56:30.118Z,15.25
2023-02-22T18:59:01.053Z,15.65
2023-02-22T19:01:29.699Z,14.50
2023-02-22T19:03:57.542Z,14.85
2023-02-22T19:06:26.847Z,14.73
2023-02-22T19:08:54.711Z,14.77
2023-02-22T19:11:24.517Z,15.13
2023-02-22T19:13:55.670Z,14.55
2023-02-22T19:16:25.243Z,15.85
2023-02-22T19:18:57.289Z,14.20
2023-02-22T19:21:28.538Z,13.70
2023-02-22T19:26:30.125Z,12.55
2023-02-22T19:28:59.998Z,13.35
2023-02-22T19:31:31.554Z,14.13
2023-02-22T19:34:01.886Z,14.20
2023-02-22T19:36:31.438Z,14.57
2023-02-22T19:39:01.558Z,13.93
2023-02-22T19:41:30.201Z,14.23
2023-02-22T19:43:58.814Z,13.73
2023-02-22T19:46:26.875Z,13.65
2023-02-22T19:48:56.399Z,13.57
2023-02-22T19:51:29.363Z,14.25
2023-02-22T19:53:59.952Z,14.50
2023-02-22T19:56:28.437Z,14.38
2023-02-22T19:58:58.278Z,13.60
2023-02-22T20:01:29.117Z,13.77
2023-02-22T20:03:59.904Z,19.08
2023-02-22T20:06:31.981Z,20.70
2023-02-22T20:09:02.528Z,16.95
2023-02-22T20:11:30.457Z,17.90
2023-02-22T20:13:58.345Z,17.15
2023-02-22T20:16:26.880Z,15.75
2023-02-22T20:18:56.013Z,16.52
2023-02-22T20:21:30.716Z,14.68
2023-02-22T20:23:59.346Z,15.03
2023-02-22T20:26:31.021Z,15.90
2023-02-22T20:29:00.310Z,14.85
2023-02-22T20:31:29.571Z,15.70
2023-02-22T20:33:59.831Z,15.52
2023-02-22T20:36:28.511Z,14.95
2023-02-22T20:38:58.513Z,15.05
2023-02-22T20:41:29.903Z,14.95
2023-02-22T20:43:58.301Z,14.43
2023-02-22T20:46:28.260Z,14.93
2023-02-22T20:48:57.036Z,14.77
2023-02-22T20:51:25.496Z,14.63
2023-02-22T20:53:54.139Z,14.50
2023-02-22T20:56:24.681Z,14.25
2023-02-22T20:58:53.991Z,13.48
2023-02-22T21:01:22.535Z,13.15
2023-02-22T21:03:51.464Z,13.68
2023-02-22T21:06:21.680Z,12.57
2023-02-22T21:09:21.907Z,12.90
2023-02-22T21:11:50.411Z,14.32
2023-02-22T21:14:20.223Z,12.75
2023-02-22T21:16:49.581Z,12.27
2023-02-22T21:19:25.502Z,12.23
2023-02-22T21:21:55.912Z,12.32
2023-02-22T21:24:24.549Z,13.95
2023-02-22T21:26:53.030Z,13.27
2023-02-22T21:29:44.227Z,12.77
2023-02-22T21:32:13.737Z,14.65
2023-02-22T21:34:42.028Z,17.02
2023-02-22T21:37:09.882Z,15.48
2023-02-22T21:39:38.777Z,15.55
2023-02-22T21:42:07.306Z,16.20
2023-02-22T21:44:35.273Z,16.38
2023-02-22T21:47:04.474Z,16.88
2023-02-22T21:49:32.370Z,17.50
2023-02-22T21:52:00.270Z,17.58
2023-02-22T21:54:28.742Z,19.58
2023-02-22T21:56:56.717Z,19.75
2023-02-22T21:59:24.830Z,19.35
2023-02-22T22:01:55.820Z,20.08
2023-02-22T22:04:27.945Z,19.88
2023-02-22T22:06:57.663Z,20.63
2023-02-22T22:09:29.103Z,21.08
2023-02-22T22:11:59.083Z,20.65
2023-02-22T22:14:28.101Z,20.42
2023-02-22T22:16:58.672Z,21.83
2023-02-22T22:19:29.118Z,22.13
2023-02-22T22:21:57.453Z,21.80
2023-02-22T22:24:25.599Z,21.90
2023-02-22T22:26:55.338Z,22.77
2023-02-22T22:29:24.612Z,22.60
2023-02-22T22:31:52.936Z,22.88
2023-02-22T22:34:24.283Z,23.05
2023-02-22T22:36:53.579Z,22.90
2023-02-22T22:39:21.647Z,22.98
2023-02-22T22:41:49.594Z,22.40
2023-02-22T22:44:22.091Z,24.90
2023-02-22T22:46:53.513Z,23.52
2023-02-22T22:49:23.530Z,24.45
2023-02-22T22:51:53.470Z,23.67
2023-02-22T22:54:21.653Z,25.55
2023-02-22T22:56:49.540Z,25.23
2023-02-22T22:59:17.959Z,25.08
2023-02-22T23:01:45.899Z,24.60
2023-02-22T23:04:16.831Z,24.13
2023-02-22T23:06:46.634Z,25.13
2023-02-22T23:09:18.958Z,26.20
2023-02-22T23:11:50.573Z,26.08
2023-02-22T23:14:21.275Z,25.88
2023-02-22T23:16:50.134Z,26.17
2023-02-22T23:19:19.155Z,25.58
2023-02-22T23:21:47.913Z,27.00
2023-02-22T23:24:20.867Z,26.88
2023-02-22T23:26:49.478Z,25.75
2023-02-22T23:29:18.951Z,26.63
2023-02-22T23:31:48.354Z,26.65
2023-02-22T23:34:17.178Z,28.83
2023-02-22T23:36:45.152Z,27.10
2023-02-22T23:39:14.212Z,27.50
2023-02-22T23:41:43.808Z,27.23
2023-02-22T23:44:17.585Z,26.30
2023-02-22T23:46:48.203Z,27.35
2023-02-22T23:49:20.053Z,26.75
2023-02-22T23:51:48.209Z,28.55
2023-02-22T23:54:19.205Z,28.23
2023-02-22T23:56:56.318Z,27.40
2023-02-22T23:59:26.012Z,25.95
